Mossel Bay, South Africa

10:01 PM SAST on July 27, 2016 (GMT +0200)
Mossel Bay Extension 7 | | Change Station

Elev 0 ft 34.18 °S, 22.12 °E | Updated 4 minutes ago

Overcast
Overcast
52.3 °F
Feels Like 52.3 °F
N
3.1
Wind Variable Wind from NW
Gusts 6.2 mph

Today
High -- | Low -- °F
--% Chance of Precip.
Yesterday
High -- | Low -- °F
Precip. -- in
Pressure 29.89 in
Visibility 6.2 miles
Clouds Few 1300 ft
Overcast 9800 ft
Dew Point 50 °F
Humidity 93%
Rainfall 0.00 in
Snow Depth Not available.
7:27 AM 5:48 PM
Last Quarter, 40% visible
METAR FAGG 271900Z AUTO VRB02KT 9999 FEW013/// OVC098/// 12/08 Q1012
Pressure 29.89 in
Visibility 6.2 miles
Clouds Few 1300 ft
Overcast 9800 ft
Dew Point 50 °F
Humidity 93%
Rainfall 0.00 in
Snow Depth Not available.
7:27 AM 5:48 PM
Last Quarter, 40% visible
METAR FAGG 271900Z AUTO VRB02KT 9999 FEW013/// OVC098/// 12/08 Q1012

10-Day Weather Forecast

No radar image for this location.
×

Almanac

Astronomy

Jul. 27, 2016 Rise Set
Actual Time
Civil Twilight
Nautical Twilight
Astronomical Twilight
Moon
Length of Visible Light
Length of Day
Tomorrow will be .
, % of the Moon is Illuminated

Today's Extremes

Country Highs Country Lows

Community

WunderPhotos

Upload Photos

1,927,931 photos uploaded!

WunderBlog® & News

Nearby

Air Quality

  Air Quality AQ Index Pollutant
Not available.

Snow Depth

Station Depth Elevation

Earthquake Activity

City Distance Mag. Time & Date
Minimum magnitude displayed is 2.5.

Coastal Water Temperatures

Place Temperature

Stations

Nearby Weather Stations

Station Location Temp. Windchill Dew Point Humidity Wind Precip. Elev Updated Type